createdAt,value
2024-03-16T00:01:22.369Z,100570.09
2024-03-16T00:03:49.282Z,100559.53
2024-03-16T00:06:15.966Z,100577.47
2024-03-16T00:08:42.665Z,100568.91
2024-03-16T00:11:09.398Z,100573.72
2024-03-16T00:13:37.496Z,100577.47
2024-03-16T00:16:05.566Z,100570.03
2024-03-16T00:18:32.520Z,100576.91
2024-03-16T00:20:59.385Z,100576.69
2024-03-16T00:23:26.070Z,100580.03
2024-03-16T00:25:52.800Z,100578.78
2024-03-16T00:28:19.511Z,100576.06
2024-03-16T00:30:46.200Z,100581.69
2024-03-16T00:33:14.089Z,100571.69
2024-03-16T00:35:41.421Z,100576.03
2024-03-16T00:38:08.393Z,100575.81
2024-03-16T00:40:35.212Z,100573.34
2024-03-16T00:43:03.214Z,100567.72
2024-03-16T00:45:30.135Z,100564.22
2024-03-16T00:47:57.700Z,100576.69
2024-03-16T00:50:24.609Z,100579.41
2024-03-16T00:52:52.205Z,100580.44
2024-03-16T00:55:19.655Z,100570.22
2024-03-16T00:57:46.409Z,100572.72
2024-03-16T01:00:15.835Z,100572.34
2024-03-16T01:02:42.833Z,100567.31
2024-03-16T01:05:09.766Z,100570.44
2024-03-16T01:07:36.547Z,100565.03
2024-03-16T01:10:03.686Z,100572.31
2024-03-16T01:12:30.553Z,100565.84
2024-03-16T01:14:58.487Z,100570.03
2024-03-16T01:17:25.332Z,100563.75
2024-03-16T01:19:52.075Z,100559.19
2024-03-16T01:22:18.822Z,100561.25
2024-03-16T01:24:45.611Z,100553.59
2024-03-16T01:27:12.456Z,100557.56
2024-03-16T01:29:39.646Z,100566.28
2024-03-16T01:32:09.674Z,100549.69
2024-03-16T01:34:37.076Z,100555.28
2024-03-16T01:37:04.018Z,100553.00
2024-03-16T01:39:33.597Z,100551.50
2024-03-16T01:42:00.582Z,100554.44
2024-03-16T01:44:27.348Z,100552.19
2024-03-16T01:46:54.096Z,100544.44
2024-03-16T01:49:20.787Z,100556.75
2024-03-16T01:51:47.381Z,100550.53
2024-03-16T01:54:14.432Z,100544.91
2024-03-16T01:56:41.158Z,100542.16
2024-03-16T01:59:07.878Z,100543.63
2024-03-16T02:01:34.698Z,100548.22
2024-03-16T02:04:01.519Z,100539.69
2024-03-16T02:06:30.164Z,100546.94
2024-03-16T02:08:58.103Z,100536.34
2024-03-16T02:11:25.045Z,100543.41
2024-03-16T02:13:52.363Z,100546.09
2024-03-16T02:16:19.166Z,100530.91
2024-03-16T02:18:46.205Z,100540.72
2024-03-16T02:21:12.983Z,100546.97
2024-03-16T02:23:41.089Z,100549.44
2024-03-16T02:26:08.919Z,100545.69
2024-03-16T02:28:35.836Z,100544.63
2024-03-16T02:31:03.014Z,100542.56
2024-03-16T02:33:30.072Z,100537.16
2024-03-16T02:35:57.057Z,100544.22
2024-03-16T02:38:24.218Z,100535.06
2024-03-16T02:40:53.567Z,100536.09
2024-03-16T02:43:20.683Z,100535.28
2024-03-16T02:45:47.937Z,100544.44
2024-03-16T02:48:14.846Z,100554.63
2024-03-16T02:50:41.506Z,100544.47
2024-03-16T02:53:09.615Z,100554.84
2024-03-16T02:55:36.857Z,100556.72
2024-03-16T02:58:03.775Z,100555.47
2024-03-16T03:00:30.558Z,100554.88
2024-03-16T03:02:58.711Z,100556.13
2024-03-16T03:05:25.465Z,100565.91
2024-03-16T03:07:52.181Z,100564.44
2024-03-16T03:10:19.418Z,100560.47
2024-03-16T03:12:47.096Z,100567.34
2024-03-16T03:15:14.567Z,100569.47
2024-03-16T03:17:41.305Z,100564.06
2024-03-16T03:20:10.334Z,100569.22
2024-03-16T03:22:37.514Z,100564.41
2024-03-16T03:25:05.073Z,100567.91
2024-03-16T03:27:32.114Z,100561.03
2024-03-16T03:29:58.953Z,100573.28
2024-03-16T03:32:25.753Z,100576.19
2024-03-16T03:34:52.483Z,100569.53
2024-03-16T03:37:19.233Z,100574.50
2024-03-16T03:39:47.930Z,100571.56
2024-03-16T03:42:15.948Z,100570.97
2024-03-16T03:44:51.527Z,100579.94
2024-03-16T03:47:18.377Z,100574.97
2024-03-16T03:49:52.095Z,100570.19
2024-03-16T03:52:19.210Z,100572.91
2024-03-16T03:54:46.057Z,100569.63
2024-03-16T03:57:12.876Z,100571.72
2024-03-16T03:59:39.544Z,100572.38
2024-03-16T04:02:06.357Z,100560.47
2024-03-16T04:04:32.999Z,100557.56
2024-03-16T04:06:59.736Z,100569.84
2024-03-16T04:09:26.478Z,100564.66
2024-03-16T04:11:53.089Z,100558.81
2024-03-16T04:14:20.702Z,100555.47
2024-03-16T04:16:48.880Z,100553.34
2024-03-16T04:19:17.531Z,100551.25
2024-03-16T04:21:45.055Z,100553.53
2024-03-16T04:24:11.921Z,100550.63
2024-03-16T04:26:39.103Z,100550.06
2024-03-16T04:29:07.162Z,100559.03
2024-03-16T04:31:34.063Z,100545.28
2024-03-16T04:34:00.965Z,100561.09
2024-03-16T04:36:27.707Z,100548.63
2024-03-16T04:38:54.416Z,100548.41
2024-03-16T04:41:21.185Z,100553.22
2024-03-16T04:43:48.592Z,100558.84
2024-03-16T04:46:15.491Z,100544.88
2024-03-16T04:48:42.187Z,100546.13
2024-03-16T04:51:08.920Z,100553.84
2024-03-16T04:53:35.465Z,100559.25
2024-03-16T04:56:02.450Z,100549.47
2024-03-16T04:58:29.200Z,100554.88
2024-03-16T05:00:55.872Z,100558.19
2024-03-16T05:03:22.513Z,100557.56
2024-03-16T05:05:51.772Z,100551.72
2024-03-16T05:08:18.389Z,100558.16
2024-03-16T05:10:51.405Z,100555.78
2024-03-16T05:13:18.168Z,100555.56
2024-03-16T05:15:44.908Z,100560.72
2024-03-16T05:18:13.777Z,100560.94
2024-03-16T05:20:40.446Z,100560.06
2024-03-16T05:23:07.077Z,100558.38
2024-03-16T05:25:33.648Z,100557.72
2024-03-16T05:28:00.483Z,100554.59
2024-03-16T05:30:27.355Z,100555.44
2024-03-16T05:32:54.116Z,100559.75
2024-03-16T05:35:20.861Z,100561.81
2024-03-16T05:37:47.463Z,100554.69
2024-03-16T05:40:14.141Z,100565.72
2024-03-16T05:42:41.398Z,100564.44
2024-03-16T05:45:08.596Z,100560.44
2024-03-16T05:47:35.284Z,100562.97
2024-03-16T05:50:02.004Z,100563.78
2024-03-16T05:52:28.594Z,100565.44
2024-03-16T05:54:55.976Z,100563.53
2024-03-16T05:57:23.215Z,100570.16
2024-03-16T05:59:49.965Z,100577.44
2024-03-16T06:02:16.669Z,100584.03
2024-03-16T06:04:43.530Z,100580.22
2024-03-16T06:07:10.333Z,100564.94
2024-03-16T06:09:37.169Z,100573.00
2024-03-16T06:12:04.206Z,100580.44
2024-03-16T06:14:30.846Z,100583.78
2024-03-16T06:16:58.271Z,100570.03
2024-03-16T06:19:24.933Z,100585.44
2024-03-16T06:21:51.850Z,100583.16
2024-03-16T06:24:18.752Z,100577.94
2024-03-16T06:26:53.653Z,100586.25
2024-03-16T06:29:27.143Z,100589.13
2024-03-16T06:31:55.340Z,100592.84
2024-03-16T06:34:22.013Z,100601.81
2024-03-16T06:36:49.928Z,100598.47
2024-03-16T06:39:22.752Z,100600.56
2024-03-16T06:41:50.979Z,100603.69
2024-03-16T06:44:18.477Z,100614.66
2024-03-16T06:46:45.010Z,100623.50
2024-03-16T06:49:12.136Z,100631.13
2024-03-16T06:51:38.759Z,100664.13
2024-03-16T06:54:05.554Z,100667.31
2024-03-16T06:56:32.457Z,100673.63
2024-03-16T06:59:00.548Z,100681.84
2024-03-16T07:01:27.384Z,100691.03
2024-03-16T07:03:54.165Z,100700.50
2024-03-16T07:06:21.018Z,100700.50
2024-03-16T07:08:47.740Z,100704.50
2024-03-16T07:11:14.454Z,100709.50
2024-03-16T07:13:41.223Z,100721.59
2024-03-16T07:16:13.018Z,100730.34
2024-03-16T07:18:39.670Z,100734.28
2024-03-16T07:21:06.442Z,100744.03
2024-03-16T07:23:33.014Z,100750.66
2024-03-16T07:25:59.857Z,100750.66
2024-03-16T07:28:26.669Z,100755.00
2024-03-16T07:30:59.799Z,100765.59
2024-03-16T07:33:26.661Z,100767.22
2024-03-16T07:35:53.493Z,100778.41
2024-03-16T07:38:20.736Z,100790.84
2024-03-16T07:40:48.319Z,100788.78
2024-03-16T07:43:15.112Z,100791.25
2024-03-16T07:45:43.999Z,100794.53
2024-03-16T07:48:11.031Z,100796.81
2024-03-16T07:50:37.840Z,100792.84
2024-03-16T07:53:04.826Z,100809.06
2024-03-16T07:55:31.934Z,100836.47
2024-03-16T07:57:58.629Z,100812.22
2024-03-16T08:00:25.388Z,100837.03
2024-03-16T08:02:52.122Z,100840.19
2024-03-16T08:05:19.384Z,100853.59
2024-03-16T08:07:48.537Z,100856.59
2024-03-16T08:10:15.244Z,100866.50
2024-03-16T08:12:42.724Z,100874.53
2024-03-16T08:15:10.616Z,100881.53
2024-03-16T08:17:37.338Z,100887.13
2024-03-16T08:20:05.953Z,100886.91
2024-03-16T08:22:32.637Z,100891.47
2024-03-16T08:24:59.452Z,100889.63
2024-03-16T08:27:32.059Z,100898.53
2024-03-16T08:30:00.951Z,100910.56
2024-03-16T08:32:27.692Z,100920.25
2024-03-16T08:34:55.980Z,100933.81
2024-03-16T08:37:22.966Z,100932.06
2024-03-16T08:39:49.848Z,100936.25
2024-03-16T08:42:16.819Z,100934.22
2024-03-16T08:44:43.568Z,100941.75
2024-03-16T08:47:10.456Z,100945.63
2024-03-16T08:49:37.176Z,100936.03
2024-03-16T08:52:05.045Z,100943.00
2024-03-16T08:54:33.778Z,100946.47
2024-03-16T08:57:01.274Z,100952.50
2024-03-16T08:59:29.293Z,100953.78
2024-03-16T09:01:56.198Z,100971.56
2024-03-16T09:04:23.005Z,100975.94
2024-03-16T09:06:49.778Z,100971.78
2024-03-16T09:09:17.674Z,100974.63
2024-03-16T09:11:44.830Z,100982.38
2024-03-16T09:14:11.976Z,100986.72
2024-03-16T09:16:42.244Z,100984.66
2024-03-16T09:19:09.170Z,100996.28
2024-03-16T09:21:36.492Z,101003.38
2024-03-16T09:24:03.931Z,101011.75
2024-03-16T09:26:30.750Z,101010.53
2024-03-16T09:28:57.600Z,101019.66
2024-03-16T09:31:27.248Z,101022.22
2024-03-16T09:33:54.252Z,101020.44
2024-03-16T09:36:21.243Z,101026.59
2024-03-16T09:38:48.981Z,101031.94
2024-03-16T09:41:19.959Z,101045.75
